Time;durP1;ratioP1;P1;durP2;ratioP2;P2;SDS_P1;SDS_P2;PMS_P1;PMS_P2;Temp;Humidity;BMP_temperature;BMP_pressure;BME280_temperature;BME280_humidity;BME280_pressure;Samples;Min_cycle;Max_cycle;Signal;HPM_P1;HPM_P2
2022/11/18 00:00:26;;;;;;;8.40;4.28;;;8.10;99.90;;;;;;7618182;19;20347;-75
2022/11/18 00:02:58;;;;;;;8.63;3.72;;;8.10;99.90;;;;;;7614003;19;20063;-75
2022/11/18 00:05:30;;;;;;;6.07;3.13;;;8.00;99.90;;;;;;7615444;19;20019;-76
2022/11/18 00:08:03;;;;;;;7.93;3.20;;;8.00;99.90;;;;;;7616268;19;20025;-76
2022/11/18 00:10:39;;;;;;;4.75;2.85;;;8.00;99.90;;;;;;7614555;19;20022;-75
2022/11/18 00:16:08;;;;;;;6.05;2.60;;;8.00;99.90;;;;;;7614438;19;20037;-74
2022/11/18 00:18:40;;;;;;;4.32;2.30;;;8.00;99.90;;;;;;7610264;19;20561;-74
2022/11/18 00:21:12;;;;;;;4.78;2.40;;;8.00;99.90;;;;;;7616259;19;20033;-75
2022/11/18 00:23:44;;;;;;;5.63;2.50;;;7.90;99.90;;;;;;7617614;19;20014;-74
2022/11/18 00:26:16;;;;;;;3.10;2.30;;;7.90;99.90;;;;;;7609978;19;20023;-75
2022/11/18 00:28:48;;;;;;;4.03;2.22;;;7.90;99.90;;;;;;7597708;19;20014;-76
2022/11/18 00:31:20;;;;;;;3.25;2.15;;;7.90;99.90;;;;;;7608005;19;20022;-75
2022/11/18 00:33:52;;;;;;;4.72;2.63;;;7.90;99.90;;;;;;7611191;19;20010;-76
2022/11/18 00:36:24;;;;;;;5.80;2.30;;;7.90;99.90;;;;;;7615808;19;20444;-75
2022/11/18 00:38:56;;;;;;;7.28;3.20;;;7.90;99.90;;;;;;7618258;19;20018;-75
2022/11/18 00:42:49;;;;;;;5.53;2.67;;;7.90;99.90;;;;;;7605482;19;20019;-75
2022/11/18 00:44:21;;;;;;;2.92;2.15;;;7.80;99.90;;;;;;7606579;19;20011;-75
2022/11/18 00:46:56;;;;;;;4.35;2.53;;;7.80;99.90;;;;;;7613906;19;20025;-76
2022/11/18 00:49:28;;;;;;;5.13;2.40;;;7.70;99.90;;;;;;7613730;19;20023;-75
2022/11/18 00:52:00;;;;;;;3.03;2.05;;;7.80;99.90;;;;;;7614617;19;20010;-75
2022/11/18 00:54:36;;;;;;;5.78;2.05;;;7.80;99.90;;;;;;7619473;19;20740;-74
2022/11/18 00:57:08;;;;;;;3.53;1.90;;;7.80;99.90;;;;;;7622746;19;20030;-76
2022/11/18 00:59:40;;;;;;;4.35;2.20;;;7.80;99.90;;;;;;7619147;19;20018;-75
2022/11/18 01:02:12;;;;;;;2.80;1.85;;;7.80;99.90;;;;;;7619782;19;20022;-76
2022/11/18 01:04:44;;;;;;;4.93;1.92;;;7.80;99.90;;;;;;7619912;19;20018;-75
2022/11/18 01:07:16;;;;;;;2.72;1.60;;;7.80;99.90;;;;;;7624096;19;20022;-75
2022/11/18 01:09:48;;;;;;;4.28;1.88;;;7.80;99.90;;;;;;7624289;19;20022;-74
2022/11/18 01:15:11;;;;;;;2.92;1.67;;;7.80;99.90;;;;;;7621536;19;20019;-75
2022/11/18 01:17:43;;;;;;;2.88;1.65;;;7.80;99.90;;;;;;7623184;19;20644;-75
2022/11/18 01:20:15;;;;;;;4.53;1.90;;;7.80;99.90;;;;;;7618031;19;20025;-75
2022/11/18 01:22:47;;;;;;;2.05;1.50;;;7.80;99.90;;;;;;7602554;19;20019;-75
2022/11/18 01:25:19;;;;;;;2.63;1.55;;;7.80;99.90;;;;;;7618775;19;20033;-75
2022/11/18 01:27:52;;;;;;;3.97;1.60;;;7.80;99.90;;;;;;7610312;19;20481;-76
2022/11/18 01:30:24;;;;;;;2.53;1.67;;;7.70;99.90;;;;;;7610071;19;20022;-76
2022/11/18 01:32:57;;;;;;;2.78;1.65;;;7.70;99.90;;;;;;7616370;19;20030;-76
2022/11/18 01:35:33;;;;;;;2.70;1.53;;;7.80;99.90;;;;;;7620000;19;20048;-76
2022/11/18 01:38:07;;;;;;;4.53;1.70;;;7.70;99.90;;;;;;7613437;19;20951;-75
2022/11/18 01:40:39;;;;;;;4.22;1.60;;;7.70;99.90;;;;;;7617669;19;20014;-74
2022/11/18 01:43:14;;;;;;;2.90;1.55;;;7.70;99.90;;;;;;7613194;19;20093;-75
2022/11/18 01:45:49;;;;;;;5.30;1.88;;;7.70;99.90;;;;;;7618078;19;20047;-74
2022/11/18 01:48:21;;;;;;;3.60;1.58;;;7.70;99.90;;;;;;7619200;19;20014;-74
2022/11/18 01:50:57;;;;;;;4.32;1.80;;;7.70;99.90;;;;;;7612491;19;20023;-75
2022/11/18 01:53:34;;;;;;;3.72;2.22;;;7.70;99.90;;;;;;7615256;19;20018;-74
2022/11/18 01:56:13;;;;;;;2.30;1.60;;;7.70;99.90;;;;;;7616179;19;20014;-76
2022/11/18 01:58:53;;;;;;;3.30;2.05;;;7.80;99.90;;;;;;7617074;19;21027;-75
2022/11/18 02:01:25;;;;;;;8.45;3.97;;;7.80;99.90;;;;;;7614448;19;20018;-75
2022/11/18 02:03:57;;;;;;;4.65;2.03;;;7.70;99.90;;;;;;7595098;19;20019;-75
2022/11/18 02:06:30;;;;;;;3.22;1.98;;;7.70;99.90;;;;;;7612974;19;20022;-75
2022/11/18 02:09:03;;;;;;;3.88;1.80;;;7.80;99.90;;;;;;7598843;19;20046;-75
2022/11/18 02:11:50;;;;;;;4.23;2.13;;;7.80;99.90;;;;;;7610373;19;20034;-75
2022/11/18 02:14:26;;;;;;;3.22;1.80;;;7.70;99.90;;;;;;7617011;19;20018;-74
2022/11/18 02:17:07;;;;;;;3.13;2.35;;;7.80;99.90;;;;;;7616660;19;20018;-74
2022/11/18 02:19:45;;;;;;;3.97;2.00;;;7.80;99.90;;;;;;7612047;19;20134;-75
2022/11/18 02:22:35;;;;;;;2.10;1.70;;;7.70;99.90;;;;;;7618389;19;20030;-75
2022/11/18 02:25:20;;;;;;;4.45;2.40;;;7.70;99.90;;;;;;7617204;19;20033;-74
2022/11/18 02:28:13;;;;;;;5.28;2.63;;;7.80;99.90;;;;;;7612023;19;20018;-73
2022/11/18 02:30:57;;;;;;;4.38;2.60;;;7.80;99.90;;;;;;7617802;19;20025;-75
2022/11/18 02:33:48;;;;;;;6.00;2.85;;;7.80;99.90;;;;;;7619936;19;20118;-75
2022/11/18 02:36:27;;;;;;;7.00;3.63;;;7.70;99.90;;;;;;7615517;19;20036;-76
2022/11/18 02:39:26;;;;;;;7.00;3.95;;;7.70;99.90;;;;;;7619907;19;20029;-75
2022/11/18 02:42:03;;;;;;;5.57;2.30;;;7.70;99.90;;;;;;7612945;19;20125;-75
2022/11/18 02:44:37;;;;;;;3.75;2.17;;;7.80;99.90;;;;;;7617418;19;20079;-73
2022/11/18 02:47:12;;;;;;;4.13;2.20;;;7.80;99.90;;;;;;7620732;19;20022;-74
2022/11/18 02:49:49;;;;;;;3.50;2.15;;;7.80;99.90;;;;;;7618932;19;20370;-75
2022/11/18 02:52:23;;;;;;;4.95;2.20;;;7.80;99.90;;;;;;7617993;19;20015;-75
2022/11/18 02:54:56;;;;;;;7.30;2.75;;;7.80;99.90;;;;;;7613648;19;20015;-76
2022/11/18 02:57:29;;;;;;;4.03;2.20;;;7.80;99.90;;;;;;7606702;19;20014;-76
2022/11/18 03:00:02;;;;;;;3.95;2.15;;;7.80;99.90;;;;;;7614772;19;20014;-75
2022/11/18 03:02:46;;;;;;;4.88;2.00;;;7.80;99.90;;;;;;7618212;19;20018;-76
2022/11/18 03:05:45;;;;;;;3.45;1.85;;;7.80;99.90;;;;;;7617184;19;20014;-75
2022/11/18 03:08:24;;;;;;;2.33;1.63;;;7.90;99.90;;;;;;7613799;19;20379;-76
2022/11/18 03:11:08;;;;;;;4.40;2.13;;;7.90;99.90;;;;;;7619218;19;20030;-76
2022/11/18 03:13:59;;;;;;;1.80;1.40;;;7.80;99.90;;;;;;7603244;19;20697;-76
2022/11/18 03:16:36;;;;;;;1.98;1.30;;;7.90;99.90;;;;;;7616233;19;20437;-76
2022/11/18 03:19:17;;;;;;;4.00;1.75;;;7.80;99.90;;;;;;7618855;19;20850;-76
2022/11/18 03:22:09;;;;;;;2.70;1.75;;;7.80;99.90;;;;;;7616940;19;20550;-76
2022/11/18 03:25:10;;;;;;;2.50;1.58;;;7.80;99.90;;;;;;7617651;19;20417;-76
2022/11/18 03:27:59;;;;;;;2.40;1.92;;;7.90;99.90;;;;;;7609654;19;20074;-76
2022/11/18 03:30:34;;;;;;;3.97;1.80;;;7.80;99.90;;;;;;7595522;19;20018;-75
2022/11/18 03:33:12;;;;;;;6.10;2.33;;;7.80;99.90;;;;;;7610461;19;20021;-76
2022/11/18 03:35:48;;;;;;;4.45;3.15;;;7.80;99.90;;;;;;7617478;19;20020;-75
2022/11/18 03:38:28;;;;;;;29.02;21.90;;;7.80;99.90;;;;;;7607351;19;20029;-76
2022/11/18 03:41:05;;;;;;;4.97;3.75;;;7.80;99.90;;;;;;7599223;19;20108;-75
2022/11/18 03:43:42;;;;;;;3.78;2.65;;;7.80;99.90;;;;;;7570336;19;20018;-76
2022/11/18 03:46:34;;;;;;;3.53;2.55;;;7.80;99.90;;;;;;7597195;19;20029;-76
2022/11/18 03:49:11;;;;;;;9.73;4.13;;;7.80;99.90;;;;;;7597575;19;20011;-75
2022/11/18 03:51:52;;;;;;;3.58;2.22;;;7.80;99.90;;;;;;7593151;19;20015;-76
2022/11/18 03:54:29;;;;;;;5.20;3.03;;;7.80;99.90;;;;;;7586393;19;20026;-75
2022/11/18 03:57:10;;;;;;;3.38;2.10;;;7.80;99.90;;;;;;7591894;19;20056;-77
2022/11/18 04:00:07;;;;;;;4.35;2.15;;;7.80;99.90;;;;;;7598945;19;21151;-75
2022/11/18 04:02:40;;;;;;;2.88;1.88;;;7.70;99.90;;;;;;7587104;19;20062;-75
2022/11/18 04:05:15;;;;;;;3.45;2.60;;;7.80;99.90;;;;;;7596237;19;20023;-75
2022/11/18 04:07:55;;;;;;;5.15;2.25;;;7.70;99.90;;;;;;7609041;19;20070;-76
2022/11/18 04:10:36;;;;;;;6.07;2.35;;;7.70;99.90;;;;;;7612722;19;20031;-76
2022/11/18 04:13:19;;;;;;;3.63;1.42;;;7.70;99.90;;;;;;7603760;19;20026;-77
2022/11/18 04:15:53;;;;;;;3.27;1.80;;;7.70;99.90;;;;;;7610049;19;20021;-75
2022/11/18 04:18:26;;;;;;;4.32;2.00;;;7.50;99.90;;;;;;7611385;19;20295;-76
2022/11/18 04:20:58;;;;;;;6.25;1.90;;;7.50;99.90;;;;;;7611246;19;20019;-76
2022/11/18 04:23:30;;;;;;;5.63;2.30;;;7.40;99.90;;;;;;7608873;19;20577;-75
2022/11/18 04:26:02;;;;;;;6.85;2.17;;;7.40;99.90;;;;;;7615921;19;20036;-75
2022/11/18 04:28:34;;;;;;;3.08;1.90;;;7.40;99.90;;;;;;7612904;19;20055;-75
2022/11/18 04:31:06;;;;;;;2.33;1.30;;;7.40;99.90;;;;;;7618812;19;20482;-76
2022/11/18 04:33:38;;;;;;;5.63;3.95;;;7.40;99.90;;;;;;7617798;19;20046;-75
2022/11/18 04:36:10;;;;;;;8.10;4.18;;;7.40;99.90;;;;;;7601655;19;20770;-74
2022/11/18 04:38:42;;;;;;;1.95;1.15;;;7.40;99.90;;;;;;7614874;19;20025;-75
2022/11/18 04:41:14;;;;;;;1.67;1.00;;;7.40;99.90;;;;;;7605908;19;20023;-75
2022/11/18 04:43:46;;;;;;;0.85;0.60;;;7.30;99.90;;;;;;7616445;19;20026;-75
2022/11/18 04:46:18;;;;;;;1.48;0.60;;;7.40;99.90;;;;;;7613556;19;20017;-75
2022/11/18 04:48:50;;;;;;;4.53;1.23;;;7.50;99.90;;;;;;7621209;19;20021;-75
2022/11/18 04:51:22;;;;;;;1.88;0.82;;;7.40;99.90;;;;;;7616561;19;20172;-74
2022/11/18 04:53:54;;;;;;;1.10;1.00;;;7.50;99.90;;;;;;7618371;19;20014;-75
2022/11/18 04:56:26;;;;;;;2.88;0.57;;;7.40;99.90;;;;;;7618634;19;20018;-75
2022/11/18 04:58:59;;;;;;;3.45;0.88;;;7.50;99.90;;;;;;7620271;19;20024;-75
2022/11/18 05:01:32;;;;;;;1.17;0.63;;;7.50;99.90;;;;;;7618840;19;20538;-74
2022/11/18 05:04:05;;;;;;;1.52;0.50;;;7.50;99.90;;;;;;7619170;19;20996;-75
2022/11/18 05:06:37;;;;;;;2.53;0.90;;;7.50;99.90;;;;;;7617624;19;20662;-75
2022/11/18 05:09:10;;;;;;;1.52;0.70;;;7.50;99.90;;;;;;7606518;19;20030;-75
2022/11/18 05:14:32;;;;;;;4.00;1.98;;;7.40;99.90;;;;;;7616502;19;20033;-76
2022/11/18 05:17:06;;;;;;;2.55;1.83;;;7.50;99.90;;;;;;7619289;19;20102;-75
2022/11/18 05:19:39;;;;;;;1.90;1.42;;;7.50;99.90;;;;;;7622055;19;20044;-75
2022/11/18 05:22:12;;;;;;;3.97;1.50;;;7.60;99.90;;;;;;7614669;19;20018;-77
2022/11/18 05:24:45;;;;;;;1.70;1.13;;;7.60;99.90;;;;;;7621686;19;20018;-76
2022/11/18 05:27:17;;;;;;;1.85;0.85;;;7.60;99.90;;;;;;7620884;19;20398;-76
2022/11/18 05:29:49;;;;;;;1.88;0.82;;;7.60;99.90;;;;;;7621247;19;20048;-76
2022/11/18 05:32:21;;;;;;;1.75;0.70;;;7.50;99.90;;;;;;7611650;19;20025;-77
2022/11/18 05:34:53;;;;;;;1.77;1.00;;;7.50;99.90;;;;;;7615494;19;20006;-75
2022/11/18 05:37:25;;;;;;;2.03;1.23;;;7.60;99.90;;;;;;7602244;19;20014;-76
2022/11/18 05:39:57;;;;;;;2.00;1.20;;;7.60;99.90;;;;;;7607245;19;20019;-76
2022/11/18 05:45:20;;;;;;;2.65;0.88;;;7.60;99.90;;;;;;7609532;19;20157;-75
2022/11/18 05:48:03;;;;;;;1.70;1.10;;;7.50;99.90;;;;;;7566972;19;20939;-75
2022/11/18 05:50:37;;;;;;;2.40;0.77;;;7.50;99.90;;;;;;7607844;19;20485;-75
2022/11/18 05:53:09;;;;;;;;;;;7.50;99.90;;;;;;7609183;19;20022;-75
2022/11/18 05:55:59;;;;;;;0.77;0.55;;;7.40;99.90;;;;;;7615455;19;19929;-75
2022/11/18 05:58:31;;;;;;;3.42;0.65;;;7.40;99.90;;;;;;7600720;19;20010;-75
2022/11/18 06:01:05;;;;;;;0.68;0.60;;;7.30;99.90;;;;;;7593164;19;20018;-75
2022/11/18 06:03:39;;;;;;;0.40;0.40;;;7.40;99.90;;;;;;7608212;19;20843;-74
2022/11/18 06:06:14;;;;;;;3.25;0.65;;;7.30;99.90;;;;;;7607298;19;20033;-75
2022/11/18 06:09:01;;;;;;;0.63;0.50;;;7.50;99.90;;;;;;7609582;19;20019;-75
2022/11/18 06:11:42;;;;;;;2.47;0.70;;;7.40;99.90;;;;;;7602331;19;20014;-76
2022/11/18 06:14:19;;;;;;;0.68;0.68;;;7.30;99.90;;;;;;7589793;19;20018;-76
2022/11/18 06:16:55;;;;;;;3.22;0.52;;;7.20;99.90;;;;;;7610509;19;21561;-76
2022/11/18 06:19:27;;;;;;;0.82;0.60;;;7.20;99.90;;;;;;7610090;19;20010;-76
2022/11/18 06:22:00;;;;;;;0.50;0.50;;;7.20;99.90;;;;;;7613051;19;20023;-76
2022/11/18 06:24:32;;;;;;;0.77;0.68;;;7.20;99.90;;;;;;7613365;19;20024;-75
2022/11/18 06:27:04;;;;;;;0.55;0.40;;;7.20;99.90;;;;;;7591970;19;20029;-75
2022/11/18 06:29:36;;;;;;;0.70;0.50;;;7.30;99.90;;;;;;7597515;19;20465;-74
2022/11/18 06:32:09;;;;;;;0.70;0.70;;;7.30;99.90;;;;;;7581203;19;20019;-75
2022/11/18 06:34:41;;;;;;;0.57;0.50;;;7.20;99.90;;;;;;7603583;19;20102;-75
2022/11/18 06:37:21;;;;;;;1.38;0.50;;;7.20;99.90;;;;;;7593256;19;20017;-75
2022/11/18 06:39:53;;;;;;;1.13;0.80;;;7.20;99.90;;;;;;7601548;19;20915;-75
2022/11/18 06:45:18;;;;;;;1.03;0.60;;;7.30;99.90;;;;;;7614621;19;20019;-75
2022/11/18 06:47:54;;;;;;;0.60;0.55;;;7.30;99.90;;;;;;7607363;19;20014;-76
2022/11/18 06:50:27;;;;;;;1.33;1.02;;;7.30;99.90;;;;;;7611841;19;20014;-75
2022/11/18 06:53:00;;;;;;;1.00;0.90;;;7.20;99.90;;;;;;7612014;19;21236;-75
2022/11/18 06:55:34;;;;;;;2.00;1.10;;;7.30;99.90;;;;;;7613009;19;20585;-74
2022/11/18 06:58:06;;;;;;;6.28;3.67;;;7.30;99.90;;;;;;7601023;19;20637;-74
2022/11/18 07:00:38;;;;;;;5.90;2.92;;;7.30;99.90;;;;;;7614077;19;20684;-74
2022/11/18 07:03:10;;;;;;;5.75;2.40;;;7.30;99.90;;;;;;7614315;19;20617;-74
2022/11/18 07:05:42;;;;;;;7.72;2.40;;;7.30;99.90;;;;;;7611207;19;20636;-74
2022/11/18 07:08:14;;;;;;;6.53;1.00;;;7.40;99.90;;;;;;7609768;19;20025;-74
2022/11/18 07:10:51;;;;;;;0.98;0.80;;;7.40;99.90;;;;;;7611885;19;20882;-74
2022/11/18 07:13:23;;;;;;;1.80;0.70;;;7.30;99.90;;;;;;7609277;19;20018;-75
2022/11/18 07:16:04;;;;;;;1.48;0.80;;;7.40;99.90;;;;;;7613928;19;20022;-75
2022/11/18 07:18:39;;;;;;;1.40;1.30;;;7.40;99.90;;;;;;7615801;19;20388;-75
2022/11/18 07:21:20;;;;;;;1.70;0.75;;;7.40;99.90;;;;;;7615668;19;20015;-76
2022/11/18 07:23:53;;;;;;;2.13;0.82;;;7.40;99.90;;;;;;7614751;19;20358;-75
2022/11/18 07:26:25;;;;;;;1.50;0.98;;;7.40;99.90;;;;;;7613189;19;20019;-74
2022/11/18 07:28:57;;;;;;;4.65;1.20;;;7.40;99.90;;;;;;7607861;19;20018;-74
2022/11/18 07:31:30;;;;;;;2.30;1.40;;;7.50;99.90;;;;;;7607449;19;20022;-75
2022/11/18 07:34:02;;;;;;;3.40;1.73;;;7.40;99.90;;;;;;7608076;19;20019;-74
2022/11/18 07:36:35;;;;;;;2.22;1.27;;;7.40;99.90;;;;;;7612108;19;20317;-74
2022/11/18 07:39:07;;;;;;;1.58;1.20;;;7.50;99.90;;;;;;7613305;19;20012;-74
2022/11/18 07:41:40;;;;;;;1.70;1.23;;;7.50;99.90;;;;;;7602637;19;20022;-74
2022/11/18 07:44:12;;;;;;;1.35;0.60;;;7.50;99.90;;;;;;7605914;19;20018;-74
2022/11/18 07:46:44;;;;;;;2.50;1.15;;;7.50;99.90;;;;;;7604623;19;20068;-74
2022/11/18 07:49:16;;;;;;;1.48;1.20;;;7.60;99.90;;;;;;7603524;19;20019;-74
2022/11/18 07:51:49;;;;;;;2.45;1.52;;;7.60;99.90;;;;;;7611124;19;20700;-74
2022/11/18 07:54:21;;;;;;;3.25;1.13;;;7.70;99.90;;;;;;7614664;19;20632;-74
2022/11/18 07:56:53;;;;;;;1.30;1.00;;;7.70;99.90;;;;;;7610629;19;20019;-75
2022/11/18 07:59:25;;;;;;;3.30;0.90;;;7.70;99.90;;;;;;7609838;19;20022;-74
2022/11/18 08:01:57;;;;;;;1.23;0.60;;;7.70;99.90;;;;;;7608987;19;20030;-74
2022/11/18 08:04:29;;;;;;;1.50;0.90;;;7.70;99.90;;;;;;7617783;19;20335;-74
2022/11/18 08:07:01;;;;;;;2.97;0.90;;;7.70;99.90;;;;;;7614726;19;20851;-74
2022/11/18 08:09:33;;;;;;;1.05;0.63;;;7.80;99.90;;;;;;7611472;19;20017;-74
2022/11/18 08:12:05;;;;;;;2.60;0.80;;;7.80;99.90;;;;;;7612976;19;20022;-74
2022/11/18 08:14:38;;;;;;;0.88;0.77;;;7.80;99.90;;;;;;7593955;19;20024;-74
2022/11/18 08:17:10;;;;;;;1.65;0.90;;;7.80;99.90;;;;;;7612639;19;20018;-74
2022/11/18 08:19:42;;;;;;;2.33;0.70;;;7.80;99.90;;;;;;7619842;19;20890;-74
2022/11/18 08:22:15;;;;;;;2.03;0.80;;;7.80;99.90;;;;;;7611560;19;20859;-74
2022/11/18 08:24:47;;;;;;;1.50;0.90;;;7.90;99.90;;;;;;7619743;19;20078;-73
2022/11/18 08:27:20;;;;;;;1.67;0.85;;;7.90;99.90;;;;;;7611072;19;20942;-74
2022/11/18 08:29:52;;;;;;;1.85;1.15;;;7.90;99.90;;;;;;7601062;19;20022;-74
2022/11/18 08:32:24;;;;;;;1.88;0.80;;;7.90;99.90;;;;;;7613071;19;20362;-74
2022/11/18 08:34:56;;;;;;;0.98;0.80;;;8.00;99.90;;;;;;7609077;19;20028;-74
2022/11/18 08:37:28;;;;;;;1.60;0.90;;;8.00;99.90;;;;;;7603691;19;20081;-74
2022/11/18 08:40:00;;;;;;;2.47;1.10;;;7.90;99.90;;;;;;7610285;19;20367;-74
2022/11/18 08:42:33;;;;;;;1.35;0.85;;;7.90;99.90;;;;;;7611338;19;20041;-74
2022/11/18 08:45:09;;;;;;;1.70;1.08;;;7.90;99.90;;;;;;7608411;19;20018;-74
2022/11/18 08:47:41;;;;;;;1.05;0.82;;;7.80;99.90;;;;;;7604445;19;20026;-74
2022/11/18 08:50:13;;;;;;;1.95;1.10;;;7.80;99.90;;;;;;7609289;19;20021;-74
2022/11/18 08:52:45;;;;;;;0.82;0.70;;;7.80;99.90;;;;;;7601758;19;20025;-74
2022/11/18 08:55:17;;;;;;;1.45;1.00;;;7.70;99.90;;;;;;7615936;19;20815;-74
2022/11/18 08:57:49;;;;;;;1.00;0.80;;;7.80;99.90;;;;;;7607905;19;20007;-74
2022/11/18 09:00:22;;;;;;;1.50;0.85;;;7.80;99.90;;;;;;7612530;19;20026;-74
2022/11/18 09:02:54;;;;;;;2.10;1.08;;;7.70;99.90;;;;;;7615785;19;20015;-74
2022/11/18 09:05:26;;;;;;;1.25;0.80;;;7.70;99.90;;;;;;7616802;19;20082;-74
2022/11/18 09:07:58;;;;;;;2.25;1.00;;;7.70;99.90;;;;;;7608457;19;20021;-74
2022/11/18 09:10:30;;;;;;;1.70;1.15;;;7.70;99.90;;;;;;7608659;19;20059;-74
2022/11/18 09:13:02;;;;;;;1.27;1.08;;;7.70;99.90;;;;;;7616736;19;20015;-74
2022/11/18 09:15:57;;;;;;;3.85;1.50;;;7.70;99.90;;;;;;7618746;19;20435;-73
2022/11/18 09:18:30;;;;;;;2.65;1.50;;;7.70;99.90;;;;;;7622986;19;20011;-73
2022/11/18 09:21:06;;;;;;;3.43;1.47;;;7.70;99.90;;;;;;7607770;19;20030;-74
2022/11/18 09:23:38;;;;;;;5.85;1.73;;;7.80;99.90;;;;;;7613775;19;20006;-74
2022/11/18 09:26:13;;;;;;;1.83;0.98;;;7.80;99.90;;;;;;7614500;19;20034;-73
2022/11/18 09:28:46;;;;;;;1.67;0.90;;;7.80;99.90;;;;;;7608084;19;20014;-74
2022/11/18 09:31:18;;;;;;;2.35;1.38;;;7.70;99.90;;;;;;7593701;19;20024;-74
2022/11/18 09:33:50;;;;;;;3.20;1.42;;;7.70;99.90;;;;;;7593306;19;20139;-74
2022/11/18 09:36:24;;;;;;;2.65;1.20;;;7.70;99.90;;;;;;7616785;19;20126;-74
2022/11/18 09:38:58;;;;;;;3.58;1.50;;;7.70;99.90;;;;;;7613439;19;20379;-73
2022/11/18 09:41:51;;;;;;;2.08;1.60;;;7.70;99.90;;;;;;7613404;19;20018;-74
2022/11/18 09:44:47;;;;;;;2.20;1.60;;;7.70;99.90;;;;;;7611718;19;20017;-74
2022/11/18 09:47:24;;;;;;;5.68;2.17;;;7.70;99.90;;;;;;7607793;19;20018;-74
2022/11/18 09:49:59;;;;;;;3.63;2.00;;;7.70;99.90;;;;;;7616672;19;20022;-74
2022/11/18 09:52:54;;;;;;;1.70;1.52;;;7.70;99.90;;;;;;7619917;19;20018;-74
2022/11/18 09:55:28;;;;;;;2.72;1.75;;;7.70;99.90;;;;;;7616277;19;20881;-74
2022/11/18 09:58:00;;;;;;;3.05;2.10;;;7.70;99.90;;;;;;7614903;19;20025;-74
2022/11/18 10:00:33;;;;;;;4.03;1.83;;;7.70;99.90;;;;;;7619608;19;20010;-74
2022/11/18 10:03:12;;;;;;;3.22;2.38;;;7.70;99.90;;;;;;7616596;19;20184;-74
2022/11/18 10:06:02;;;;;;;3.63;2.30;;;7.70;99.90;;;;;;7611301;19;20105;-74
2022/11/18 10:08:52;;;;;;;5.18;3.03;;;7.80;99.90;;;;;;7614605;19;20018;-74
2022/11/18 10:11:29;;;;;;;4.70;2.30;;;7.70;99.90;;;;;;7578260;19;20623;-73
2022/11/18 10:14:41;;;;;;;2.15;1.90;;;7.70;99.90;;;;;;7565436;19;20022;-74
2022/11/18 10:17:43;;;;;;;2.58;2.10;;;7.70;99.90;;;;;;7575083;19;20011;-74
2022/11/18 10:20:15;;;;;;;4.13;2.92;;;7.70;99.90;;;;;;7560591;19;20002;-73
2022/11/18 10:22:55;;;;;;;6.40;3.65;;;7.70;99.90;;;;;;7576325;19;20015;-74
2022/11/18 10:25:27;;;;;;;5.20;2.28;;;7.70;99.90;;;;;;7589042;19;20552;-74
2022/11/18 10:28:22;;;;;;;2.72;1.80;;;7.60;99.90;;;;;;7563620;19;20011;-73
2022/11/18 10:31:10;;;;;;;2.42;1.85;;;7.50;99.90;;;;;;7584955;19;20491;-74
2022/11/18 10:33:42;;;;;;;3.50;1.27;;;7.40;99.90;;;;;;7579669;19;20018;-73
2022/11/18 10:36:17;;;;;;;2.90;1.58;;;7.30;99.90;;;;;;7569019;19;20511;-74
2022/11/18 10:39:05;;;;;;;3.67;1.90;;;7.30;99.90;;;;;;7584559;19;20369;-73
2022/11/18 10:42:01;;;;;;;3.53;1.92;;;7.30;99.90;;;;;;7585555;19;20015;-73
2022/11/18 10:44:39;;;;;;;3.83;1.73;;;7.30;99.90;;;;;;7605560;19;20085;-74
2022/11/18 10:47:31;;;;;;;5.88;2.30;;;7.20;99.90;;;;;;7595735;19;20359;-74
2022/11/18 10:50:34;;;;;;;3.33;1.90;;;7.30;99.90;;;;;;7604418;19;21166;-74
2022/11/18 10:53:29;;;;;;;3.47;2.13;;;7.30;99.90;;;;;;7608965;19;20018;-74
2022/11/18 10:56:03;;;;;;;6.57;2.55;;;7.30;99.90;;;;;;7605447;19;20027;-74
2022/11/18 10:58:42;;;;;;;4.97;2.30;;;7.40;99.90;;;;;;7608366;19;20017;-74
2022/11/18 11:01:25;;;;;;;12.75;2.50;;;7.30;99.90;;;;;;7603453;19;20050;-73
2022/11/18 11:04:21;;;;;;;3.65;2.55;;;7.30;99.90;;;;;;7610063;19;20135;-74
2022/11/18 11:06:54;;;;;;;6.28;3.00;;;7.30;99.90;;;;;;7609433;19;20371;-74
2022/11/18 11:09:28;;;;;;;5.95;2.75;;;7.30;99.90;;;;;;7590992;19;20018;-74
2022/11/18 11:12:15;;;;;;;4.07;2.30;;;7.30;99.90;;;;;;7587926;19;20022;-74
2022/11/18 11:14:52;;;;;;;5.00;2.15;;;7.20;99.90;;;;;;7586944;19;20037;-74
2022/11/18 11:17:36;;;;;;;8.73;3.45;;;7.20;99.90;;;;;;7588674;19;20472;-74
2022/11/18 11:20:19;;;;;;;4.70;2.22;;;7.10;99.90;;;;;;7566980;19;21344;-74
2022/11/18 11:22:53;;;;;;;3.85;2.13;;;7.00;99.90;;;;;;7564464;19;20022;-73
2022/11/18 11:25:50;;;;;;;8.13;4.97;;;7.00;99.90;;;;;;7560446;19;20014;-73
2022/11/18 11:28:49;;;;;;;8.57;3.65;;;7.10;99.90;;;;;;7573873;19;20122;-74
2022/11/18 11:31:53;;;;;;;5.53;2.40;;;7.10;99.90;;;;;;7587245;19;20030;-73
2022/11/18 11:34:37;;;;;;;3.95;2.33;;;7.10;99.90;;;;;;7580344;19;20019;-74
2022/11/18 11:37:31;;;;;;;4.80;2.90;;;7.20;99.90;;;;;;7597525;19;21000;-73
2022/11/18 11:40:35;;;;;;;4.65;1.70;;;7.30;99.90;;;;;;7592941;19;21894;-73
2022/11/18 11:43:29;;;;;;;7.07;2.33;;;7.30;99.90;;;;;;7594679;19;20022;-73
2022/11/18 11:46:26;;;;;;;3.97;1.65;;;7.30;99.90;;;;;;7592055;19;20491;-74
2022/11/18 11:49:21;;;;;;;3.28;1.80;;;7.30;99.90;;;;;;7595484;19;20650;-73
2022/11/18 11:51:57;;;;;;;2.75;1.92;;;7.30;99.90;;;;;;7585476;19;20022;-73
2022/11/18 11:55:07;;;;;;;2.97;1.85;;;7.30;99.90;;;;;;7589817;19;20029;-74
2022/11/18 11:58:14;;;;;;;3.83;2.72;;;7.40;99.90;;;;;;7599629;19;20010;-74
2022/11/18 12:01:18;;;;;;;6.63;2.70;;;7.30;99.90;;;;;;7603094;19;20018;-74
2022/11/18 12:03:56;;;;;;;3.20;2.10;;;7.20;99.90;;;;;;7603084;19;20014;-74
2022/11/18 12:06:28;;;;;;;3.00;2.22;;;7.30;99.90;;;;;;7603562;19;20025;-73
2022/11/18 12:09:39;;;;;;;3.80;2.00;;;7.20;99.90;;;;;;7599265;19;20060;-74
2022/11/18 12:12:37;;;;;;;3.67;2.25;;;7.20;99.90;;;;;;7596069;19;20015;-73
2022/11/18 12:15:17;;;;;;;4.65;2.25;;;7.30;99.90;;;;;;7598549;19;20090;-73
2022/11/18 12:17:53;;;;;;;4.38;2.30;;;7.30;99.90;;;;;;7604297;19;20018;-74
2022/11/18 12:20:39;;;;;;;2.85;1.60;;;7.30;99.90;;;;;;7593804;19;20047;-74
2022/11/18 12:23:14;;;;;;;5.03;2.17;;;7.30;99.90;;;;;;7582540;19;20017;-76
2022/11/18 12:25:46;;;;;;;5.03;2.88;;;7.30;99.90;;;;;;7584028;19;20010;-73
2022/11/18 12:28:40;;;;;;;4.18;2.72;;;7.30;99.90;;;;;;7589199;19;20015;-72
2022/11/18 12:31:18;;;;;;;3.50;2.55;;;7.30;99.90;;;;;;7581878;19;20014;-73
2022/11/18 12:33:52;;;;;;;2.88;1.60;;;7.30;99.90;;;;;;7557157;19;20014;-73
2022/11/18 12:36:32;;;;;;;4.97;1.75;;;7.30;99.90;;;;;;7549676;19;20131;-74
2022/11/18 12:39:26;;;;;;;1.67;1.17;;;7.30;99.90;;;;;;7553751;19;20014;-73
2022/11/18 12:45:34;;;;;;;6.15;2.08;;;7.20;99.90;;;;;;7587056;19;20446;-73
2022/11/18 12:48:28;;;;;;;2.80;1.40;;;7.20;99.90;;;;;;7596689;19;20970;-73
2022/11/18 12:51:40;;;;;;;2.92;1.67;;;7.20;99.90;;;;;;7600522;19;20137;-73
2022/11/18 12:54:33;;;;;;;3.90;1.85;;;7.10;99.90;;;;;;7599643;19;20033;-74
2022/11/18 12:57:22;;;;;;;2.60;1.60;;;7.10;99.90;;;;;;7602000;19;20938;-74
2022/11/18 12:59:55;;;;;;;2.10;1.90;;;7.10;99.90;;;;;;7603512;19;20507;-74
2022/11/18 13:02:28;;;;;;;3.83;1.48;;;7.00;99.90;;;;;;7604905;19;20018;-73
2022/11/18 13:05:20;;;;;;;2.58;1.63;;;7.00;99.90;;;;;;7575684;19;20473;-73
2022/11/18 13:08:15;;;;;;;4.57;1.80;;;7.00;99.90;;;;;;7528440;19;20015;-74
2022/11/18 13:11:43;;;;;;;1.58;1.45;;;7.10;99.90;;;;;;7553726;19;20101;-73
2022/11/18 13:17:50;;;;;;;2.08;1.88;;;7.00;99.90;;;;;;7554926;19;20017;-74
2022/11/18 13:19:34;;;;;;;3.22;2.03;;;6.90;99.90;;;;;;7544927;19;20105;-74
2022/11/18 13:25:25;;;;;;;2.78;2.13;;;6.90;99.90;;;;;;7535823;19;20025;-74
2022/11/18 13:28:17;;;;;;;3.33;2.35;;;6.90;99.90;;;;;;7551907;19;20010;-74
2022/11/18 13:31:19;;;;;;;4.32;2.65;;;6.90;99.90;;;;;;7549706;19;20022;-74
2022/11/18 13:33:51;;;;;;;2.75;2.20;;;6.90;99.90;;;;;;7552172;19;20490;-74
2022/11/18 13:36:25;;;;;;;3.97;2.93;;;6.90;99.90;;;;;;7574952;19;26261;-74
2022/11/18 13:38:59;;;;;;;4.78;2.60;;;6.90;99.90;;;;;;7547624;19;20017;-73
2022/11/18 13:41:33;;;;;;;4.38;3.03;;;7.00;99.90;;;;;;7550189;19;20014;-73
2022/11/18 13:44:24;;;;;;;4.95;3.63;;;7.00;99.90;;;;;;7572815;19;20025;-73
2022/11/18 13:47:22;;;;;;;5.85;3.17;;;6.90;99.90;;;;;;7579766;19;20038;-74
2022/11/18 13:50:17;;;;;;;6.45;2.47;;;6.80;99.90;;;;;;7552565;19;21499;-75
2022/11/18 13:53:17;;;;;;;3.78;2.50;;;6.90;99.90;;;;;;7590789;19;20056;-74
2022/11/18 13:55:55;;;;;;;4.93;2.00;;;6.80;99.90;;;;;;7575547;19;20360;-74
2022/11/18 13:58:55;;;;;;;4.38;3.05;;;6.80;99.90;;;;;;7600255;19;20014;-74
2022/11/18 14:01:54;;;;;;;4.18;2.85;;;6.80;99.90;;;;;;7569646;19;20010;-73
2022/11/18 14:04:29;;;;;;;5.43;3.45;;;6.90;99.90;;;;;;7593612;19;20014;-74
2022/11/18 14:07:20;;;;;;;5.35;3.25;;;6.80;99.90;;;;;;7587540;19;20015;-73
2022/11/18 14:10:04;;;;;;;7.43;4.50;;;6.80;99.90;;;;;;7547231;19;20086;-74
2022/11/18 14:12:37;;;;;;;6.93;5.28;;;6.90;99.90;;;;;;7558836;19;20090;-74
2022/11/18 14:15:13;;;;;;;11.50;6.97;;;6.90;99.90;;;;;;7514491;19;20010;-73
2022/11/18 14:17:54;;;;;;;11.63;7.40;;;6.90;99.90;;;;;;7542097;19;20018;-74
2022/11/18 14:20:28;;;;;;;10.55;7.40;;;6.90;99.90;;;;;;7559272;19;20372;-73